Time;durP1;ratioP1;P1;durP2;ratioP2;P2;SDS_P1;SDS_P2;PMS_P1;PMS_P2;Temp;Humidity;BMP_temperature;BMP_pressure;BME280_temperature;BME280_humidity;BME280_pressure;Samples;Min_cycle;Max_cycle;Signal;HPM_P1;HPM_P2
2023/10/29 00:01:52;;;;;;;1.00;1.00;;;;;;;-1.43;100.00;97402.78;4703126;30;20065;-81
2023/10/29 00:04:19;;;;;;;1.10;1.10;;;;;;;-1.47;100.00;97406.84;4702705;30;20063;-80
2023/10/29 00:06:47;;;;;;;1.00;1.00;;;;;;;-1.49;100.00;97402.78;4718413;30;20053;-79
2023/10/29 00:09:14;;;;;;;0.95;0.95;;;;;;;-1.53;100.00;97419.06;4728966;30;20092;-81
2023/10/29 00:11:42;;;;;;;1.00;1.00;;;;;;;-1.52;100.00;97401.38;4735851;30;20145;-81
2023/10/29 00:14:09;;;;;;;1.00;1.00;;;;;;;-1.54;100.00;97421.94;4710990;30;20057;-81
2023/10/29 00:16:36;;;;;;;1.17;1.17;;;;;;;-1.57;100.00;97431.13;4724127;30;20075;-81
2023/10/29 00:19:03;;;;;;;1.08;1.08;;;;;;;-1.57;100.00;97424.97;4729430;30;20057;-81
2023/10/29 00:21:34;;;;;;;1.00;1.00;;;;;;;-1.53;100.00;97429.66;4720200;30;20065;-81
2023/10/29 00:24:01;;;;;;;1.10;1.10;;;;;;;-1.51;100.00;97423.38;4735573;30;20060;-80
2023/10/29 00:26:28;;;;;;;1.15;1.15;;;;;;;-1.56;100.00;97426.63;4719785;30;20520;-79
2023/10/29 00:28:55;;;;;;;1.00;1.00;;;;;;;-1.57;100.00;97424.97;4719542;30;20385;-81
2023/10/29 00:31:24;;;;;;;1.00;1.00;;;;;;;-1.53;100.00;97431.50;4702333;30;20053;-81
2023/10/29 00:33:51;;;;;;;0.90;0.90;;;;;;;-1.47;100.00;97429.84;4718106;30;20081;-80
2023/10/29 00:36:19;;;;;;;1.00;1.00;;;;;;;-1.41;100.00;97434.34;4731346;30;20068;-80
2023/10/29 00:38:46;;;;;;;0.80;0.80;;;;;;;-1.41;100.00;97434.34;4735725;30;20052;-80
2023/10/29 00:41:13;;;;;;;0.90;0.90;;;;;;;-1.43;100.00;97431.09;4735254;30;20509;-80
2023/10/29 00:43:40;;;;;;;1.10;1.10;;;;;;;-1.39;100.00;97430.47;4735777;30;20471;-80
2023/10/29 00:46:08;;;;;;;1.10;1.10;;;;;;;-1.40;100.00;97435.97;4719856;30;20045;-80
2023/10/29 00:48:36;;;;;;;1.02;1.02;;;;;;;-1.40;100.00;97442.06;4719397;30;20059;-81
2023/10/29 00:51:04;;;;;;;1.00;1.00;;;;;;;-1.40;100.00;97439.41;4705256;30;20480;-81
2023/10/29 00:53:31;;;;;;;1.00;1.00;;;;;;;-1.48;100.00;97442.28;4735480;30;20065;-81
2023/10/29 00:55:58;;;;;;;0.98;0.98;;;;;;;-1.48;100.00;97458.16;4733988;30;20126;-80
2023/10/29 00:58:27;;;;;;;1.02;1.02;;;;;;;-1.48;100.00;97455.50;4704566;30;20060;-80
2023/10/29 01:00:54;;;;;;;1.10;1.10;;;;;;;-1.49;100.00;97455.69;4719409;30;20064;-81
2023/10/29 01:03:22;;;;;;;0.82;0.82;;;;;;;-1.44;100.00;97464.69;4734860;30;20060;-80
2023/10/29 01:05:50;;;;;;;0.90;0.90;;;;;;;-1.47;100.00;97474.84;4733915;30;20052;-80
2023/10/29 01:08:17;;;;;;;0.80;0.80;;;;;;;-1.49;100.00;97474.22;4734782;30;20426;-80
2023/10/29 01:10:45;;;;;;;1.10;1.10;;;;;;;-1.47;100.00;97480.13;4734846;30;20140;-81
2023/10/29 01:13:13;;;;;;;0.90;0.90;;;;;;;-1.48;100.00;97483.81;4733533;30;20052;-81
2023/10/29 01:15:40;;;;;;;1.10;1.10;;;;;;;-1.46;100.00;97485.22;4719152;30;20056;-80
2023/10/29 01:18:08;;;;;;;1.10;1.10;;;;;;;-1.42;100.00;97490.91;4718949;30;20532;-80
2023/10/29 01:20:35;;;;;;;1.00;1.00;;;;;;;-1.40;100.00;97494.97;4719170;30;20100;-81
2023/10/29 01:23:02;;;;;;;0.90;0.90;;;;;;;-1.42;100.00;97497.06;4734333;30;20075;-82
2023/10/29 01:25:29;;;;;;;0.90;0.90;;;;;;;-1.42;100.00;97502.34;4734536;30;20053;-81
2023/10/29 01:27:59;;;;;;;1.00;1.00;;;;;;;-1.45;100.00;97505.38;4734437;30;20144;-81
2023/10/29 01:30:27;;;;;;;1.05;1.05;;;;;;;-1.43;100.00;97508.63;4734167;30;20057;-80
2023/10/29 01:32:54;;;;;;;1.00;1.00;;;;;;;-1.44;100.00;97516.75;4733059;30;20064;-81
2023/10/29 01:35:21;;;;;;;0.90;0.90;;;;;;;-1.47;100.00;97510.03;4734459;30;20139;-81
2023/10/29 01:37:50;;;;;;;1.10;1.10;;;;;;;-1.45;100.00;97523.91;4718817;30;20055;-81
2023/10/29 01:40:17;;;;;;;1.10;1.10;;;;;;;-1.47;100.00;97519.81;4718525;30;20049;-81
2023/10/29 01:42:46;;;;;;;1.00;1.00;;;;;;;-1.48;100.00;97524.31;4718492;30;20152;-80
2023/10/29 01:45:17;;;;;;;1.00;1.00;;;;;;;-1.47;100.00;97528.56;4734164;30;20055;-80
2023/10/29 01:47:44;;;;;;;1.00;1.00;;;;;;;-1.44;100.00;97530.00;4733198;30;20540;-81
2023/10/29 01:50:11;;;;;;;1.00;1.00;;;;;;;-1.41;100.00;97541.00;4718740;30;20057;-81
2023/10/29 01:52:39;;;;;;;0.90;0.90;;;;;;;-1.39;100.00;97546.09;4733951;30;20063;-82
2023/10/29 01:55:07;;;;;;;0.82;0.82;;;;;;;-1.41;100.00;97545.50;4734101;30;20148;-82
2023/10/29 01:57:38;;;;;;;0.90;0.90;;;;;;;-1.36;100.00;97551.00;4718259;30;20083;-81
2023/10/29 02:00:06;;;;;;;1.08;1.08;;;;;;;-1.42;100.00;97552.63;4704178;30;20476;-81
2023/10/29 02:02:39;;;;;;;1.10;1.10;;;;;;;-1.42;100.00;97568.50;4733899;30;20057;-81
2023/10/29 02:05:06;;;;;;;1.10;1.10;;;;;;;-1.38;100.00;97566.25;4717990;30;20148;-79
2023/10/29 02:07:34;;;;;;;1.10;1.10;;;;;;;-1.38;100.00;97567.06;4703717;30;20521;-81
2023/10/29 02:10:01;;;;;;;1.00;1.00;;;;;;;-1.36;100.00;97574.81;4733276;30;20060;-80
2023/10/29 02:12:33;;;;;;;1.10;1.10;;;;;;;-1.40;100.00;97566.44;4733766;30;20497;-80
2023/10/29 02:15:00;;;;;;;1.02;1.02;;;;;;;-1.39;100.00;97581.31;4732684;30;20536;-80
2023/10/29 02:17:34;;;;;;;0.80;0.80;;;;;;;-1.40;100.00;97581.50;4733661;30;20064;-81
2023/10/29 02:20:02;;;;;;;1.00;1.00;;;;;;;-1.45;100.00;97579.47;4733820;30;20152;-81
2023/10/29 02:22:31;;;;;;;1.00;1.00;;;;;;;-1.41;100.00;97585.19;4733465;30;20064;-81
2023/10/29 02:24:58;;;;;;;1.02;1.02;;;;;;;-1.42;100.00;97584.38;4732550;30;20052;-81
2023/10/29 02:27:25;;;;;;;1.02;1.02;;;;;;;-1.40;100.00;97595.56;4733283;30;20061;-81
2023/10/29 02:29:54;;;;;;;1.02;1.02;;;;;;;-1.40;100.00;97594.75;4732356;30;20147;-81
2023/10/29 02:32:22;;;;;;;1.02;1.02;;;;;;;-1.37;100.00;97599.63;4733220;30;20624;-80
2023/10/29 02:34:49;;;;;;;0.90;0.90;;;;;;;-1.41;100.00;97606.34;4717667;30;20088;-81
2023/10/29 02:37:16;;;;;;;1.10;1.10;;;;;;;-1.44;100.00;97601.44;4732089;30;20491;-80
2023/10/29 02:39:43;;;;;;;1.10;1.10;;;;;;;-1.44;100.00;97604.09;4733390;30;20080;-80
2023/10/29 02:42:14;;;;;;;0.95;0.95;;;;;;;-1.44;100.00;97615.53;4733118;30;20099;-80
2023/10/29 02:44:41;;;;;;;1.05;1.05;;;;;;;-1.45;100.00;97618.34;4732040;30;20052;-81
2023/10/29 02:47:08;;;;;;;1.00;1.00;;;;;;;-1.44;100.00;97618.16;4717350;30;20425;-81
2023/10/29 02:49:35;;;;;;;1.10;1.10;;;;;;;-1.44;100.00;97623.47;4731886;30;20056;-81
2023/10/29 02:52:03;;;;;;;1.00;1.00;;;;;;;-1.49;100.00;97617.94;4733138;30;20057;-80
2023/10/29 02:54:32;;;;;;;1.08;1.08;;;;;;;-1.42;100.00;97629.38;4716975;30;20107;-81
2023/10/29 02:56:59;;;;;;;1.00;1.00;;;;;;;-1.36;100.00;97639.13;4733043;30;20056;-81
2023/10/29 02:59:29;;;;;;;1.00;1.00;;;;;;;-1.37;100.00;97645.47;4732953;30;20061;-81
2023/10/29 03:01:56;;;;;;;1.00;1.00;;;;;;;-1.40;100.00;97653.78;4741249;30;20609;-80
2023/10/29 03:04:23;;;;;;;0.90;0.90;;;;;;;-1.35;100.00;97664.56;4734592;30;20059;-81
2023/10/29 03:06:50;;;;;;;1.00;1.00;;;;;;;-1.37;100.00;97658.69;4734834;30;20148;-81
2023/10/29 03:09:18;;;;;;;1.10;1.10;;;;;;;-1.37;100.00;97664.00;4734702;30;20056;-81
2023/10/29 03:11:46;;;;;;;1.00;1.00;;;;;;;-1.30;100.00;97663.97;4750628;30;20125;-81
2023/10/29 03:14:13;;;;;;;1.00;1.00;;;;;;;-1.26;100.00;97664.41;4750201;30;20194;-80
2023/10/29 03:16:40;;;;;;;1.10;1.10;;;;;;;-1.31;100.00;97673.75;4734461;30;20117;-80
2023/10/29 03:19:08;;;;;;;0.90;0.90;;;;;;;-1.27;100.00;97679.44;4750084;30;20048;-81
2023/10/29 03:21:36;;;;;;;1.00;1.00;;;;;;;-1.28;100.00;97680.47;4749459;30;20056;-79
2023/10/29 03:24:03;;;;;;;1.00;1.00;;;;;;;-1.24;100.00;97694.13;4734384;30;20469;-80
2023/10/29 03:26:30;;;;;;;1.10;1.10;;;;;;;-1.28;100.00;97688.41;4720299;30;20052;-80
2023/10/29 03:28:57;;;;;;;1.08;1.08;;;;;;;-1.28;100.00;97692.91;4751344;30;20087;-80
2023/10/29 03:31:24;;;;;;;1.00;1.00;;;;;;;-1.33;100.00;97702.25;4734840;30;20732;-81
2023/10/29 03:33:52;;;;;;;1.00;1.00;;;;;;;-1.34;100.00;97697.19;4750233;30;20509;-80
2023/10/29 03:36:19;;;;;;;0.93;0.93;;;;;;;-1.35;100.00;97711.41;4720458;30;20160;-80
2023/10/29 03:38:47;;;;;;;1.05;1.05;;;;;;;-1.35;100.00;97704.28;4732753;30;20049;-80
2023/10/29 03:41:21;;;;;;;1.10;1.10;;;;;;;-1.38;100.00;97709.97;4716712;30;20060;-80
2023/10/29 03:43:48;;;;;;;1.10;1.10;;;;;;;-1.36;100.00;97720.38;4732901;30;20067;-80
2023/10/29 03:46:16;;;;;;;1.08;1.08;;;;;;;-1.38;100.00;97720.56;4687302;30;20065;-81
2023/10/29 03:48:45;;;;;;;1.10;1.10;;;;;;;-1.39;100.00;97726.88;4732765;30;20191;-83
2023/10/29 03:51:12;;;;;;;1.10;1.10;;;;;;;-1.39;100.00;97721.59;4731804;30;20056;-81
2023/10/29 03:53:40;;;;;;;1.08;1.08;;;;;;;-1.38;100.00;97727.69;4715880;30;20052;-80
2023/10/29 03:56:08;;;;;;;1.30;1.20;;;;;;;-1.38;100.00;97738.28;4721960;30;20057;-80
2023/10/29 03:58:36;;;;;;;1.10;1.10;;;;;;;-1.37;100.00;97743.38;4722932;30;20060;-80
2023/10/29 04:01:03;;;;;;;1.00;1.00;;;;;;;-1.38;100.00;97747.03;4723840;30;20165;-81
2023/10/29 04:03:30;;;;;;;1.00;1.00;;;;;;;-1.36;100.00;97750.31;4719497;30;20067;-81
2023/10/29 04:05:58;;;;;;;1.10;1.10;;;;;;;-1.34;100.00;97752.75;4725694;30;20057;-82
2023/10/29 04:08:26;;;;;;;0.95;0.95;;;;;;;-1.30;100.00;97764.56;4732151;30;20545;-81
2023/10/29 04:10:53;;;;;;;1.10;1.10;;;;;;;-1.30;100.00;97767.22;4732329;30;20502;-81
2023/10/29 04:13:20;;;;;;;1.00;1.00;;;;;;;-1.34;100.00;97768.66;4716609;30;20063;-81
2023/10/29 04:15:48;;;;;;;1.10;1.10;;;;;;;-1.37;100.00;97769.84;4731311;30;20060;-81
2023/10/29 04:18:15;;;;;;;1.00;1.00;;;;;;;-1.36;100.00;97774.13;4729699;30;20057;-81
2023/10/29 04:20:42;;;;;;;0.93;0.93;;;;;;;-1.38;100.00;97780.63;4714924;30;20437;-81
2023/10/29 04:23:10;;;;;;;1.10;1.10;;;;;;;-1.44;100.00;97786.69;4714859;30;20104;-80
2023/10/29 04:25:37;;;;;;;1.00;1.00;;;;;;;-1.42;100.00;97790.81;4714957;30;20057;-81
2023/10/29 04:28:04;;;;;;;1.00;1.00;;;;;;;-1.38;100.00;97792.03;4714647;30;20064;-81
2023/10/29 04:30:31;;;;;;;0.95;0.95;;;;;;;-1.37;100.00;97796.31;4714529;30;20057;-82
2023/10/29 04:32:59;;;;;;;1.00;1.00;;;;;;;-1.37;100.00;97809.56;4715173;30;20540;-81
2023/10/29 04:35:26;;;;;;;1.10;1.10;;;;;;;-1.40;100.00;97806.47;4724904;30;20076;-81
2023/10/29 04:37:53;;;;;;;1.00;1.00;;;;;;;-1.37;100.00;97816.66;4735271;30;20063;-81
2023/10/29 04:40:20;;;;;;;1.10;1.10;;;;;;;-1.39;100.00;97819.53;4734975;30;20548;-81
2023/10/29 04:42:48;;;;;;;1.00;1.00;;;;;;;-1.41;100.00;97810.97;4735232;30;20143;-81
2023/10/29 04:45:15;;;;;;;1.08;1.08;;;;;;;-1.37;100.00;97816.66;4733733;30;20525;-82
2023/10/29 04:47:42;;;;;;;0.90;0.90;;;;;;;-1.41;100.00;97818.91;4722512;30;20053;-81
2023/10/29 04:50:09;;;;;;;1.10;1.10;;;;;;;-1.42;100.00;97822.56;4718021;30;20061;-81
2023/10/29 04:52:37;;;;;;;1.00;1.00;;;;;;;-1.41;100.00;97820.72;4717761;30;20131;-81
2023/10/29 04:55:05;;;;;;;1.00;1.00;;;;;;;-1.43;100.00;97823.56;4717599;30;20103;-81
2023/10/29 04:57:32;;;;;;;0.85;0.85;;;;;;;-1.46;100.00;97825.78;4720931;30;20138;-82
2023/10/29 05:00:00;;;;;;;1.10;1.10;;;;;;;-1.45;100.00;97827.41;4734947;30;20475;-83
2023/10/29 05:02:35;;;;;;;1.40;1.30;;;;;;;-1.44;100.00;97840.47;4734657;30;20480;-82
2023/10/29 05:05:05;;;;;;;1.00;1.00;;;;;;;-1.43;100.00;97847.38;4733969;30;20142;-82
2023/10/29 05:07:35;;;;;;;1.10;1.10;;;;;;;-1.44;100.00;97834.34;4719697;30;20057;-82
2023/10/29 05:10:18;;;;;;;1.08;1.08;;;;;;;-1.49;100.00;97845.53;4702080;30;20076;-81
2023/10/29 05:12:45;;;;;;;0.98;0.98;;;;;;;-1.40;100.00;97854.13;4719069;30;20530;-81
2023/10/29 05:15:12;;;;;;;1.10;1.10;;;;;;;-1.42;100.00;97854.31;4733705;30;20103;-82
2023/10/29 05:17:42;;;;;;;1.30;1.20;;;;;;;-1.46;100.00;97854.91;4734522;30;20075;-82
2023/10/29 05:20:10;;;;;;;0.82;0.82;;;;;;;-1.46;100.00;97865.50;4719037;30;20056;-81
2023/10/29 05:22:38;;;;;;;0.90;0.90;;;;;;;-1.43;100.00;97867.75;4734518;30;20068;-81
2023/10/29 05:25:08;;;;;;;0.98;0.98;;;;;;;-1.38;100.00;97870.63;4715829;30;20455;-82
2023/10/29 05:27:38;;;;;;;1.08;1.08;;;;;;;-1.39;100.00;97877.75;4701572;30;20094;-81
2023/10/29 05:30:07;;;;;;;1.08;1.08;;;;;;;-1.40;100.00;97880.56;4717075;30;20053;-81
2023/10/29 05:32:34;;;;;;;1.00;1.00;;;;;;;-1.39;100.00;97877.75;4729952;30;20556;-82
2023/10/29 05:35:02;;;;;;;0.90;0.90;;;;;;;-1.34;100.00;97883.28;4732232;30;20434;-81
2023/10/29 05:37:29;;;;;;;0.90;0.90;;;;;;;-1.36;100.00;97880.00;4733796;30;20548;-81
2023/10/29 05:39:57;;;;;;;1.00;1.00;;;;;;;-1.33;100.00;97892.03;4732872;30;20441;-81
2023/10/29 05:42:25;;;;;;;1.00;1.00;;;;;;;-1.44;100.00;97877.53;4733928;30;20507;-80
2023/10/29 05:44:53;;;;;;;1.10;1.10;;;;;;;-1.36;100.00;97876.53;4733644;30;20188;-81
2023/10/29 05:47:20;;;;;;;1.10;1.10;;;;;;;-1.27;100.00;97899.16;4747874;30;20049;-80
2023/10/29 05:49:47;;;;;;;1.10;1.10;;;;;;;-1.26;100.00;97907.97;4734180;30;20066;-82
2023/10/29 05:52:14;;;;;;;1.00;1.00;;;;;;;-1.23;100.00;97908.38;4733717;30;20146;-81
2023/10/29 05:54:43;;;;;;;1.27;1.20;;;;;;;-1.35;100.00;97896.69;4732983;30;20052;-81
2023/10/29 05:57:11;;;;;;;0.95;0.95;;;;;;;-1.26;100.00;97915.91;4718557;30;20156;-81
2023/10/29 05:59:38;;;;;;;1.00;1.00;;;;;;;-1.29;100.00;97925.03;4733854;30;20053;-81
2023/10/29 06:02:08;;;;;;;1.00;1.00;;;;;;;-1.33;100.00;97916.66;4733808;30;20425;-83
2023/10/29 06:04:52;;;;;;;0.98;0.98;;;;;;;-1.31;100.00;97930.53;4733211;30;20145;-81
2023/10/29 06:07:20;;;;;;;1.02;1.02;;;;;;;-1.26;100.00;97929.13;4733587;30;20431;-81
2023/10/29 06:09:48;;;;;;;1.10;1.10;;;;;;;-1.29;100.00;97926.84;4744416;30;20060;-81
2023/10/29 06:12:15;;;;;;;1.10;1.10;;;;;;;-1.28;100.00;97941.75;4751039;30;20094;-81
2023/10/29 06:14:45;;;;;;;1.05;1.05;;;;;;;-1.29;100.00;97943.56;4735714;30;20052;-80
2023/10/29 06:17:12;;;;;;;0.95;0.95;;;;;;;-1.36;100.00;97925.00;4751107;30;20052;-80
2023/10/29 06:19:53;;;;;;;1.08;1.08;;;;;;;-1.37;100.00;97927.81;4749188;30;20056;-82
2023/10/29 06:22:23;;;;;;;1.10;1.10;;;;;;;-1.38;100.00;97934.97;4747505;30;20152;-80
2023/10/29 06:24:54;;;;;;;1.10;1.10;;;;;;;-1.33;100.00;97943.13;4757203;30;20063;-82
2023/10/29 06:27:21;;;;;;;1.00;1.00;;;;;;;-1.25;100.00;97952.75;4748474;30;20083;-80
2023/10/29 06:29:48;;;;;;;1.00;1.00;;;;;;;-1.24;100.00;97954.41;4745979;30;20060;-82
2023/10/29 06:32:16;;;;;;;0.95;0.95;;;;;;;-1.19;100.00;97953.78;4747124;30;20056;-81
2023/10/29 06:34:43;;;;;;;1.10;1.10;;;;;;;-1.16;100.00;97959.53;4744828;30;20060;-82
2023/10/29 06:37:11;;;;;;;1.00;1.00;;;;;;;-1.13;100.00;97967.09;4738681;30;20064;-82
2023/10/29 06:39:41;;;;;;;1.00;1.00;;;;;;;-1.21;100.00;97958.50;4747639;30;20052;-81
2023/10/29 06:42:08;;;;;;;1.00;1.00;;;;;;;-1.21;100.00;97977.03;4751870;30;20220;-82
2023/10/29 06:44:36;;;;;;;1.02;1.02;;;;;;;-1.15;100.00;97978.88;4744871;30;20061;-83
2023/10/29 06:47:03;;;;;;;1.00;1.00;;;;;;;-1.16;100.00;97983.38;4728004;30;20056;-83
2023/10/29 06:49:30;;;;;;;0.95;0.95;;;;;;;-1.13;100.00;97982.16;4740470;30;20080;-81
2023/10/29 06:51:58;;;;;;;1.08;1.08;;;;;;;-1.13;100.00;97992.75;4746072;30;20075;-78
2023/10/29 06:54:25;;;;;;;1.10;1.10;;;;;;;-1.18;100.00;97992.50;4698511;30;20402;-80
2023/10/29 06:56:52;;;;;;;1.00;1.00;;;;;;;-1.21;100.00;97996.38;4746344;30;20052;-79
2023/10/29 06:59:20;;;;;;;1.00;1.00;;;;;;;-1.20;100.00;98003.28;4742939;30;20060;-81
2023/10/29 07:01:48;;;;;;;1.13;1.10;;;;;;;-1.23;100.00;97998.38;4727701;30;20063;-81
2023/10/29 07:04:16;;;;;;;1.05;1.05;;;;;;;-1.18;100.00;98006.56;4741810;30;20064;-82
2023/10/29 07:06:46;;;;;;;1.05;1.05;;;;;;;-1.16;100.00;98014.31;4727310;30;20048;-80
2023/10/29 07:09:15;;;;;;;1.00;1.00;;;;;;;-1.15;100.00;98010.66;4748072;30;20067;-81
2023/10/29 07:11:42;;;;;;;1.02;1.02;;;;;;;-1.17;100.00;98016.13;4742070;30;20053;-80
2023/10/29 07:14:12;;;;;;;0.90;0.90;;;;;;;-1.20;100.00;98013.06;4748216;30;20091;-80
2023/10/29 07:16:45;;;;;;;1.10;1.10;;;;;;;-1.25;100.00;98018.13;4751255;30;20056;-80
2023/10/29 07:19:16;;;;;;;1.20;1.10;;;;;;;-1.26;100.00;98019.97;4747131;30;20056;-79
2023/10/29 07:21:44;;;;;;;0.95;0.95;;;;;;;-1.12;100.00;98034.09;4752609;30;20060;-79
2023/10/29 07:24:11;;;;;;;1.20;1.20;;;;;;;-1.09;100.00;98025.75;4737209;30;20083;-80
2023/10/29 07:26:40;;;;;;;1.00;1.00;;;;;;;-1.09;100.00;98046.94;4743862;30;20055;-80
2023/10/29 07:29:08;;;;;;;1.02;1.02;;;;;;;-1.12;100.00;98048.16;4741299;30;20059;-79
2023/10/29 07:31:35;;;;;;;1.08;1.08;;;;;;;-1.12;100.00;98042.03;4750148;30;20084;-80
2023/10/29 07:34:02;;;;;;;0.98;0.98;;;;;;;-1.12;100.00;98057.91;4742695;30;20056;-79
2023/10/29 07:36:29;;;;;;;1.00;1.00;;;;;;;-1.10;100.00;98069.16;4710509;30;20071;-79
2023/10/29 07:38:57;;;;;;;1.10;1.10;;;;;;;-1.11;100.00;98067.53;4729912;30;20118;-81
2023/10/29 07:41:24;;;;;;;1.10;1.10;;;;;;;-1.05;100.00;98068.56;4698443;30;20362;-78
2023/10/29 07:43:51;;;;;;;1.05;1.05;;;;;;;-1.02;100.00;98070.84;4725359;30;20069;-80
2023/10/29 07:46:20;;;;;;;0.82;0.82;;;;;;;-0.98;100.00;98078.19;4722259;30;20053;-80
2023/10/29 07:48:47;;;;;;;1.00;1.00;;;;;;;-0.94;100.00;98087.41;4708638;30;20068;-81
2023/10/29 07:51:14;;;;;;;1.00;1.00;;;;;;;-0.92;100.00;98088.00;4711057;30;20485;-79
2023/10/29 07:53:42;;;;;;;1.00;1.00;;;;;;;-0.92;100.00;98088.00;4711587;30;20544;-82
2023/10/29 07:56:16;;;;;;;0.82;0.82;;;;;;;-0.93;100.00;98096.16;4723622;30;20057;-82
2023/10/29 07:58:46;;;;;;;1.27;1.20;;;;;;;-0.94;100.00;98098.00;4715060;30;20053;-81
2023/10/29 08:01:16;;;;;;;1.00;1.00;;;;;;;-0.90;100.00;98104.53;4710782;30;20649;-80
2023/10/29 08:03:44;;;;;;;0.88;0.88;;;;;;;-0.91;100.00;98110.84;4699334;30;20061;-81
2023/10/29 08:06:13;;;;;;;1.00;1.00;;;;;;;-0.91;100.00;98115.34;4712902;30;20057;-79
2023/10/29 08:08:40;;;;;;;1.00;1.00;;;;;;;-0.87;100.00;98120.03;4732752;30;20098;-81
2023/10/29 08:11:18;;;;;;;1.10;1.10;;;;;;;-0.85;100.00;98122.50;4703031;30;20487;-81
2023/10/29 08:13:50;;;;;;;1.00;1.00;;;;;;;-0.91;100.00;98118.00;4723330;30;20057;-80
2023/10/29 08:16:18;;;;;;;1.05;1.05;;;;;;;-1.04;100.00;98108.09;4733230;30;20544;-81
2023/10/29 08:18:46;;;;;;;1.10;1.10;;;;;;;-0.93;100.00;98123.47;4728582;30;20402;-81
2023/10/29 08:21:13;;;;;;;1.10;1.10;;;;;;;-0.93;100.00;98135.91;4729024;30;20106;-81
2023/10/29 08:23:42;;;;;;;1.00;1.00;;;;;;;-0.93;100.00;98142.00;4726689;30;20064;-83
2023/10/29 08:26:09;;;;;;;1.10;1.10;;;;;;;-0.92;100.00;98135.69;4733821;30;20517;-80
2023/10/29 08:28:37;;;;;;;1.10;1.10;;;;;;;-0.87;100.00;98140.41;4727812;30;20057;-80
2023/10/29 08:31:04;;;;;;;1.10;1.10;;;;;;;-0.89;100.00;98147.72;4719230;30;20476;-81
2023/10/29 08:33:31;;;;;;;0.90;0.90;;;;;;;-0.92;100.00;98133.03;4734688;30;20148;-80
2023/10/29 08:35:59;;;;;;;1.10;1.10;;;;;;;-0.91;100.00;98161.19;4744009;30;20121;-80
2023/10/29 08:38:26;;;;;;;1.00;1.00;;;;;;;-0.96;100.00;98147.69;4752091;30;20147;-79
2023/10/29 08:40:53;;;;;;;0.90;0.90;;;;;;;-0.96;100.00;98160.94;4735109;30;20083;-80
2023/10/29 08:43:20;;;;;;;1.00;1.00;;;;;;;-0.95;100.00;98181.13;4746623;30;20056;-79
2023/10/29 08:45:47;;;;;;;1.00;1.00;;;;;;;-0.95;100.00;98172.34;4751655;30;20048;-80
2023/10/29 08:48:15;;;;;;;0.95;0.95;;;;;;;-0.95;100.00;98175.81;4752461;30;20714;-80
2023/10/29 08:50:42;;;;;;;1.08;1.08;;;;;;;-0.90;100.00;98177.91;4725056;30;20057;-79
2023/10/29 08:53:12;;;;;;;0.93;0.93;;;;;;;-0.94;100.00;98188.06;4733400;30;20238;-80
2023/10/29 08:55:40;;;;;;;1.10;1.10;;;;;;;-0.99;100.00;98174.53;4751591;30;20056;-79
2023/10/29 08:58:09;;;;;;;1.00;1.00;;;;;;;-0.99;100.00;98195.75;4753090;30;20056;-82
2023/10/29 09:00:36;;;;;;;1.10;1.10;;;;;;;-1.00;100.00;98188.00;4746258;30;20052;-81
2023/10/29 09:03:14;;;;;;;1.02;1.02;;;;;;;-1.06;100.00;98179.00;4732290;30;20432;-81
2023/10/29 09:05:43;;;;;;;0.90;0.90;;;;;;;-1.10;100.00;98191.78;4736257;30;20080;-82
2023/10/29 09:08:11;;;;;;;1.00;1.00;;;;;;;-1.07;100.00;98192.41;4746444;30;20080;-83
2023/10/29 09:10:42;;;;;;;1.10;1.10;;;;;;;-1.05;100.00;98193.84;4735809;30;20053;-83
2023/10/29 09:13:10;;;;;;;1.10;1.10;;;;;;;-1.05;100.00;98196.50;4739727;30;20060;-81
2023/10/29 09:15:38;;;;;;;1.10;1.10;;;;;;;-0.97;100.00;98200.84;4726308;30;20089;-80
2023/10/29 09:18:05;;;;;;;1.00;1.00;;;;;;;-0.92;100.00;98209.06;4742623;30;20052;-81
2023/10/29 09:20:36;;;;;;;1.10;1.10;;;;;;;-0.94;100.00;98217.22;4749608;30;20217;-81
2023/10/29 09:23:04;;;;;;;1.02;1.02;;;;;;;-0.99;100.00;98201.03;4750556;30;20095;-82
2023/10/29 09:25:35;;;;;;;1.30;1.20;;;;;;;-0.94;100.00;98201.31;4741121;30;20118;-82
2023/10/29 09:28:05;;;;;;;1.00;1.00;;;;;;;-1.00;100.00;98214.47;4724999;30;20060;-82
2023/10/29 09:30:36;;;;;;;1.10;1.10;;;;;;;-1.01;100.00;98199.59;4748092;30;20083;-83
2023/10/29 09:33:05;;;;;;;1.15;1.15;;;;;;;-0.78;100.00;98226.72;4755626;30;20524;-81
2023/10/29 09:35:32;;;;;;;1.10;1.10;;;;;;;-0.71;100.00;98218.78;4750944;30;20134;-81
2023/10/29 09:37:59;;;;;;;1.10;1.10;;;;;;;-0.75;100.00;98234.28;4735370;30;20056;-82
2023/10/29 09:40:35;;;;;;;1.10;1.10;;;;;;;-0.77;100.00;98230.19;4743914;30;20599;-80
2023/10/29 09:43:08;;;;;;;1.02;1.02;;;;;;;-0.77;100.00;98235.47;4751580;30;20056;-80
2023/10/29 09:45:39;;;;;;;0.98;0.98;;;;;;;-0.75;100.00;98234.28;4750719;30;20060;-81
2023/10/29 09:48:07;;;;;;;1.00;1.00;;;;;;;-0.74;100.00;98229.78;4753731;30;20408;-81
2023/10/29 09:50:37;;;;;;;1.00;1.00;;;;;;;-0.60;100.00;98250.09;4760555;30;20596;-78
2023/10/29 09:53:05;;;;;;;0.90;0.90;;;;;;;-0.69;100.00;98246.75;4720404;30;20058;-81
2023/10/29 09:55:33;;;;;;;1.10;1.10;;;;;;;-0.67;100.00;98259.81;4728478;30;20102;-81
2023/10/29 09:58:04;;;;;;;1.10;1.10;;;;;;;-0.69;100.00;98264.47;4749769;30;20128;-81
2023/10/29 10:00:32;;;;;;;1.20;1.20;;;;;;;-0.76;100.00;98242.41;4743981;30;20056;-81
2023/10/29 10:03:00;;;;;;;0.98;0.98;;;;;;;-0.77;100.00;98261.97;4738695;30;20060;-83
2023/10/29 10:05:38;;;;;;;1.00;1.00;;;;;;;-0.79;100.00;98245.44;4718735;30;20052;-81
2023/10/29 10:09:17;;;;;;;1.10;1.10;;;;;;;-0.78;100.00;98249.75;4405962;30;10000381;-84
2023/10/29 10:11:44;;;;;;;0.90;0.90;;;;;;;-0.84;99.93;98250.50;4722671;30;20082;-81
2023/10/29 10:14:40;;;;;;;0.95;0.95;;;;;;;-0.69;100.00;98275.09;4745902;30;20048;-82
2023/10/29 10:17:09;;;;;;;1.00;1.00;;;;;;;-0.76;100.00;98285.63;4702478;30;20059;-81
2023/10/29 10:19:37;;;;;;;1.05;1.05;;;;;;;-0.76;100.00;98263.59;4733893;30;20052;-80
2023/10/29 10:22:04;;;;;;;1.00;1.00;;;;;;;-0.73;100.00;98287.91;4715820;30;20698;-82
2023/10/29 10:24:38;;;;;;;1.10;1.10;;;;;;;-0.68;100.00;98284.69;4712496;30;20064;-80
2023/10/29 10:27:06;;;;;;;1.20;1.20;;;;;;;-0.67;100.00;98294.28;4726950;30;20063;-80
2023/10/29 10:29:33;;;;;;;0.98;0.98;;;;;;;-0.63;100.00;98292.03;4714990;30;20450;-80
2023/10/29 10:32:04;;;;;;;1.00;1.00;;;;;;;-0.60;100.00;98295.16;4715009;30;20078;-80
2023/10/29 10:34:34;;;;;;;1.08;1.08;;;;;;;-0.61;100.00;98296.16;4709321;30;20076;-79
2023/10/29 10:37:02;;;;;;;1.10;1.10;;;;;;;-0.56;100.00;98307.00;4726171;30;20048;-80
2023/10/29 10:39:33;;;;;;;1.02;1.02;;;;;;;-0.59;100.00;98307.38;4725867;30;20052;-81
2023/10/29 10:42:02;;;;;;;1.00;1.00;;;;;;;-0.55;100.00;98313.16;4734703;30;20406;-81
2023/10/29 10:44:31;;;;;;;0.95;0.95;;;;;;;-0.56;100.00;98322.09;4731130;30;20061;-81
2023/10/29 10:46:59;;;;;;;1.00;1.00;;;;;;;-0.49;100.00;98325.63;4717099;30;20059;-81
2023/10/29 10:49:30;;;;;;;0.90;0.90;;;;;;;-0.47;100.00;98321.78;4731623;30;20164;-81
2023/10/29 10:52:01;;;;;;;0.95;0.95;;;;;;;-0.41;100.00;98330.78;4729033;30;20056;-80
2023/10/29 10:54:31;;;;;;;1.00;1.00;;;;;;;-0.37;99.87;98323.28;4738646;30;20137;-80
2023/10/29 10:57:01;;;;;;;1.00;1.00;;;;;;;-0.36;100.00;98327.56;4732867;30;20052;-80
2023/10/29 10:59:35;;;;;;;1.08;1.08;;;;;;;-0.32;99.98;98339.44;4738950;30;20512;-80
2023/10/29 11:02:07;;;;;;;1.10;1.10;;;;;;;-0.39;100.00;98333.25;4753957;30;20052;-79
2023/10/29 11:04:34;;;;;;;0.80;0.80;;;;;;;-0.38;100.00;98346.34;4733567;30;20063;-80
2023/10/29 11:07:03;;;;;;;0.90;0.90;;;;;;;-0.38;100.00;98367.56;4704467;30;20061;-82
2023/10/29 11:09:31;;;;;;;0.90;0.90;;;;;;;-0.46;100.00;98349.94;4716113;30;20072;-81
2023/10/29 11:11:59;;;;;;;1.05;1.05;;;;;;;-0.48;99.83;98367.88;4738663;30;20543;-83
2023/10/29 11:14:30;;;;;;;1.10;1.10;;;;;;;-0.52;100.00;98366.59;4729290;30;20604;-82
2023/10/29 11:16:59;;;;;;;0.85;0.85;;;;;;;-0.47;99.78;98371.31;4746480;30;20086;-82
2023/10/29 11:19:41;;;;;;;1.02;1.02;;;;;;;-0.46;100.00;98375.59;4755028;30;20054;-83
2023/10/29 11:22:20;;;;;;;1.10;1.10;;;;;;;-0.48;100.00;98389.06;4736342;30;20741;-83
2023/10/29 11:25:11;;;;;;;1.00;1.00;;;;;;;-0.49;100.00;98399.84;4715714;30;20056;-78
2023/10/29 11:27:46;;;;;;;1.10;1.10;;;;;;;-0.53;100.00;98391.47;4736577;30;20060;-81
2023/10/29 11:30:15;;;;;;;1.00;1.00;;;;;;;-0.52;100.00;98395.75;4749311;30;20087;-83
2023/10/29 11:32:43;;;;;;;0.98;0.98;;;;;;;-0.53;100.00;98402.06;4748371;30;20070;-80